Home > Products > Valid Products > MTR

000
SAUS41 KLWX 312209 COR
MTRRSP
METAR KRSP 312154Z AUTO 10SM OVC044 07/00 RMK AO2 SLPNO T00670000 $





000
SAUS41 KLWX 312200
MTRRYT
METAR KRYT 312153Z AUTO 03003KT 10SM OVC055 A2985 RMK AO2 SLPNO $





000
SAUS41 KLWX 312159 COR
MTRDMH
METAR KDMH 312154Z AUTO 13/01 A2987 RMK AO1 SLP116 T01280006





000
SAUS41 KLWX 312155
MTRNAK
METAR KNAK 312154Z AUTO 34003KT 10SM CLR 12/03 A2987 RMK AO2 SLP117
T01220028





000
SAUS41 KLWX 312109 COR
MTRRSP
METAR KRSP 312054Z AUTO 10SM OVC044 07/00 RMK AO2 SLPNO T00720000 $





000
SAUS41 KLWX 312100
MTRRYT
METAR KRYT 312053Z AUTO 03005KT 10SM OVC055 A2986 RMK AO2 SLPNO
56010 $





000
SAUS41 KLWX 312059 COR
MTRDMH
METAR KDMH 312054Z AUTO 13/00 A2987 RMK AO1 SLP116 T01280000 56015





000
SAUS41 KLWX 312055
MTRNAK
METAR KNAK 312054Z AUTO 02005KT 10SM CLR 12/01 A2987 RMK AO2 SLP116
T01220011 56014





000
SAUS41 KLWX 312009 COR
MTRRSP
METAR KRSP 311954Z AUTO 10SM OVC044 07/M01 RMK AO2 SLPNO T00721006 $





000
SAUS41 KLWX 312000
MTRRYT
METAR KRYT 311953Z AUTO 00000KT 10SM OVC055 A2986 RMK AO2 SLPNO $





000
SAUS41 KLWX 311959 COR
MTRDMH
METAR KDMH 311954Z AUTO 13/00 A2988 RMK AO1 SLP118 T01280000





000
SAUS41 KLWX 311955
MTRNAK
METAR KNAK 311954Z AUTO 35006KT 10SM CLR 13/01 A2987 RMK AO2 SLP117
T01280011





000
SAUS41 KLWX 311909 COR
MTRRSP
METAR KRSP 311854Z AUTO 10SM OVC042 08/00 RMK AO2 SLPNO T00780000 $





000
SAUS41 KLWX 311900
MTRRYT
METAR KRYT 311853Z AUTO VRB03KT 10SM OVC049 A2987 RMK AO2 SLPNO $





000
SAUS41 KLWX 311859 COR
MTRDMH
METAR KDMH 311854Z AUTO 13/01 A2989 RMK AO1 SLP122 T01280006





000
SAUS41 KLWX 311856
MTRNAK
METAR KNAK 311854Z AUTO 36007KT 10SM CLR 13/02 A2989 RMK AO2 SLP122
T01280017





000
SAUS41 KLWX 311809 COR
MTRRSP
METAR KRSP 311754Z AUTO 10SM OVC042 07/00 RMK AO2 SLPNO T00720000
10072 20050 $





000
SAUS41 KLWX 311800
MTRRYT
METAR KRYT 311753Z AUTO 05004KT 10SM OVC049 A2989 RMK AO2 SLPNO
58023 $





000
SAUS41 KLWX 311759 COR
MTRDMH
METAR KDMH 311754Z AUTO 12/01 A2992 RMK AO1 SLP131 T01220006 10122
20094 58025





000
SAUS41 KLWX 311755
MTRNAK
METAR KNAK 311754Z AUTO 02008KT 10SM CLR 12/02 A2991 RMK AO2 SLP129
T01220022 10122 20094 57029





000
SAUS41 KLWX 311709 COR
MTRRSP
METAR KRSP 311654Z AUTO 10SM OVC042 07/00 RMK AO2 SLPNO T00670000 $





000
SAUS41 KLWX 311700
MTRRYT
METAR KRYT 311653Z AUTO 00000KT 10SM OVC049 A2992 RMK AO2 SLPNO $





000
SAUS41 KLWX 311700
MTRRYT
METAR KRYT 311653Z AUTO 00000KT 10SM OVC049 A2992 RMK AO2 SLPNO $





000
SAUS41 KLWX 311659 COR
MTRDMH
METAR KDMH 311654Z AUTO 12/01 A2994 RMK AO1 SLP138 T01170006





000
SAUS41 KLWX 311659 COR
MTRDMH
METAR KDMH 311654Z AUTO 12/01 A2994 RMK AO1 SLP138 T01170006





000
SAUS41 KLWX 311655
MTRNAK
METAR KNAK 311654Z AUTO VRB05KT 10SM BKN060 12/03 A2994 RMK AO2
SLP140 T01220028





000
SAUS41 KLWX 311655
MTRNAK
METAR KNAK 311654Z AUTO VRB05KT 10SM BKN060 12/03 A2994 RMK AO2
SLP140 T01220028





000
SAUS41 KLWX 311609 COR
MTRRSP
METAR KRSP 311554Z AUTO 10SM OVC042 06/01 RMK AO2 SLPNO T00610006 $





000
SAUS41 KLWX 311600
MTRRYT
METAR KRYT 311553Z AUTO VRB03KT 10SM FEW042 OVC049 A2995 RMK AO2
SLPNO $





000
SAUS41 KLWX 311559 COR
MTRDMH
METAR KDMH 311554Z AUTO 11/01 A2998 RMK AO1 SLP151 T01110011





000
SAUS41 KLWX 311555
MTRNAK
METAR KNAK 311554Z AUTO 36006KT 10SM OVC060 12/02 A2996 RMK AO2
SLP148 T01170017





000
SAUS41 KLWX 311509 COR
MTRRSP
METAR KRSP 311454Z AUTO 10SM OVC040 06/M01 RMK AO2 SLPNO T00611006 $





000
SAUS41 KLWX 311500
MTRRYT
METAR KRYT 311453Z AUTO 00000KT 10SM OVC049 A2996 RMK AO2 SLPNO
58003 $





000
SAUS41 KLWX 311456
MTRNAK
METAR KNAK 311454Z AUTO 07004KT 10SM OVC060 10/02 A2999 RMK AO2
SLP158 T01000022 58000





000
SAUS41 KLWX 311409 COR
MTRRSP
METAR KRSP 311354Z AUTO 10SM OVC040 06/00 RMK AO2 SLPNO T00560000 $





000
SAUS41 KLWX 311400
MTRRYT
METAR KRYT 311353Z AUTO 00000KT 10SM OVC049 A2997 RMK AO2 SLPNO $





000
SAUS41 KLWX 311359 COR
MTRDMH
METAR KDMH 311354Z AUTO 10/02 A3001 RMK AO1 SLP160 T01000017





000
SAUS41 KLWX 311355
MTRNAK
METAR KNAK 311354Z AUTO 05007KT 10SM OVC060 10/02 A3000 RMK AO2
SLP161 T01000022





000
SAUS41 KLWX 311309 COR
MTRRSP
METAR KRSP 311254Z AUTO 10SM OVC040 06/01 RMK AO2 SLPNO T00560006 $





000
SAUS41 KLWX 311300
MTRRYT
METAR KRYT 311253Z AUTO 00000KT 10SM OVC049 A2998 RMK AO2 SLPNO $





000
SAUS41 KLWX 311259 COR
MTRDMH
METAR KDMH 311254Z AUTO 09/02 A3001 RMK AO1 SLP161 T00940022





000
SAUS41 KLWX 311255
MTRNAK
METAR KNAK 311254Z AUTO 06006KT 10SM OVC060 09/03 A3000 RMK AO2
SLP161 T00940033





000
SAUS41 KLWX 311209 COR
MTRRSP
METAR KRSP 311154Z AUTO 10SM OVC040 05/01 RMK AO2 SLPNO T00500006
10067 20050 $





000
SAUS41 KLWX 311200
MTRRYT
METAR KRYT 311153Z AUTO 00000KT 10SM OVC049 A2997 RMK AO2 SLPNO
58003 $





000
SAUS41 KLWX 311159 COR
MTRDMH
METAR KDMH 311154Z AUTO 09/02 A3001 RMK AO1 SLP162 T00940017 10106
20094 58001





000
SAUS41 KLWX 311155
MTRNAK
METAR KNAK 311154Z AUTO 06005KT 10SM BKN060 10/03 A2999 RMK AO2
SLP158 T01000028 10111 20100 58005





000
SAUS41 KLWX 311109 COR
MTRRSP
METAR KRSP 311054Z AUTO 10SM OVC040 06/01 RMK AO2 SLPNO T00560006 $





000
SAUS41 KLWX 311100
MTRRYT
METAR KRYT 311053Z AUTO 00000KT 10SM OVC049 A2998 RMK AO2 SLPNO $





000
SAUS41 KLWX 311059 COR
MTRDMH
METAR KDMH 311054Z AUTO 10/02 A3001 RMK AO1 SLP160 T01000017





000
SAUS41 KLWX 311055
MTRNAK
METAR KNAK 311054Z AUTO 07003KT 10SM OVC060 10/03 A3000 RMK AO2
SLP160 T01000033





000
SAUS41 KLWX 311055
MTRNAK
METAR KNAK 311054Z AUTO 07003KT 10SM OVC060 10/03 A3000 RMK AO2
SLP160 T01000033





000
SAUS41 KLWX 311009 COR
MTRRSP
METAR KRSP 310954Z AUTO 10SM OVC042 06/01 RMK AO2 SLPNO T00610006 $





000
SAUS41 KLWX 311009 COR
MTRRSP
METAR KRSP 310954Z AUTO 10SM OVC042 06/01 RMK AO2 SLPNO T00610006 $





000
SAUS41 KLWX 311000
MTRRYT
METAR KRYT 310953Z AUTO 00000KT 10SM OVC049 A2998 RMK AO2 SLPNO $





000
SAUS41 KLWX 310959 COR
MTRDMH
METAR KDMH 310954Z AUTO 10/02 A3003 RMK AO1 SLP167 T01000022





000
SAUS41 KLWX 310955
MTRNAK
METAR KNAK 310954Z AUTO 04003KT 10SM OVC060 10/03 A3001 RMK AO2
SLP164 T01000033





000
SAUS41 KLWX 310955
MTRNAK
METAR KNAK 310954Z AUTO 04003KT 10SM OVC060 10/03 A3001 RMK AO2
SLP164 T01000033





000
SAUS41 KLWX 310909 COR
MTRRSP
METAR KRSP 310854Z AUTO 10SM OVC042 07/01 RMK AO2 SLPNO T00670006 $





000
SAUS41 KLWX 310900
MTRRYT
METAR KRYT 310853Z AUTO 00000KT 10SM OVC049 A2998 RMK AO2 SLPNO
58006 $





000
SAUS41 KLWX 310859 COR
MTRDMH
METAR KDMH 310854Z AUTO 10/03 A3001 RMK AO1 SLP163 T01000033 58005





000
SAUS41 KLWX 310855
MTRNAK
METAR KNAK 310854Z AUTO 06003KT 10SM OVC060 10/04 A3001 RMK AO2
SLP163 T01000039 56004





000
SAUS41 KLWX 310809 COR
MTRRSP
METAR KRSP 310754Z AUTO 10SM OVC040 07/01 RMK AO2 SLPNO T00670011 $





000
SAUS41 KLWX 310800
MTRRYT
METAR KRYT 310753Z AUTO 00000KT 10SM OVC049 A2999 RMK AO2 SLPNO $





000
SAUS41 KLWX 310759 COR
MTRDMH
METAR KDMH 310754Z AUTO 10/03 A3002 RMK AO1 SLP166 T01000033





000
SAUS41 KLWX 310755
MTRNAK
METAR KNAK 310754Z AUTO 08003KT 10SM OVC060 11/04 A3001 RMK AO2
SLP164 T01060039





000
SAUS41 KLWX 310709 COR
MTRRSP
METAR KRSP 310654Z AUTO 10SM OVC040 06/01 RMK AO2 SLPNO T00610011 $





000
SAUS41 KLWX 310700
MTRRYT
METAR KRYT 310653Z AUTO 00000KT 10SM OVC049 A3000 RMK AO2 SLPNO $





000
SAUS41 KLWX 310659 COR
MTRDMH
METAR KDMH 310654Z AUTO 10/03 A3003 RMK AO1 SLP168 T01000033





000
SAUS41 KLWX 310656
MTRNAK
METAR KNAK 310654Z AUTO 00000KT 10SM OVC060 10/04 A3001 RMK AO2
SLP165 T01000044





000
SAUS41 KLWX 310609 COR
MTRRSP
METAR KRSP 310554Z AUTO 10SM OVC040 06/01 RMK AO2 SLPNO T00610006
10067 20050 $





000
SAUS41 KLWX 310600
MTRRYT
METAR KRYT 310553Z AUTO 23003KT 10SM OVC049 A3000 RMK AO2 SLPNO
57010 $





000
SAUS41 KLWX 310559 COR
MTRDMH
METAR KDMH 310554Z AUTO 11/03 A3003 RMK AO1 SLP168 T01060033 10122
20106 56005





000
SAUS41 KLWX 310555
MTRNAK
METAR KNAK 310554Z AUTO 36004KT 10SM OVC060 11/04 A3002 RMK AO2
SLP167 T01060044 10117 20089 56008





000
SAUS41 KLWX 310509 COR
MTRRSP
METAR KRSP 310454Z AUTO 10SM FEW042 05/00 RMK AO2 SLPNO T00500000
401060039 $





000
SAUS41 KLWX 310500
MTRRYT
METAR KRYT 310453Z AUTO 00000KT 10SM CLR A3001 RMK AO2 SLPNO $





000
SAUS41 KLWX 310459 COR
MTRDMH
METAR KDMH 310454Z AUTO 12/02 A3003 RMK AO1 SLP168 T01170022
401560100





000
SAUS41 KLWX 310459 COR
MTRDMH
METAR KDMH 310454Z AUTO 12/02 A3003 RMK AO1 SLP168 T01170022
401560100





000
SAUS41 KLWX 310456
MTRNAK
METAR KNAK 310454Z AUTO 35005KT 10SM OVC060 12/05 A3002 RMK AO2
SLP168 T01170050 401500078





000
SAUS41 KLWX 310409 COR
MTRRSP
METAR KRSP 310354Z AUTO 10SM CLR 05/00 RMK AO2 SLPNO T00500000 $





000
SAUS41 KLWX 310409 COR
MTRRSP
METAR KRSP 310354Z AUTO 10SM CLR 05/00 RMK AO2 SLPNO T00500000 $





000
SAUS41 KLWX 310400
MTRRYT
METAR KRYT 310353Z AUTO 00000KT 10SM CLR A3002 RMK AO2 SLPNO $





000
SAUS41 KLWX 310400
MTRRYT
METAR KRYT 310353Z AUTO 00000KT 10SM CLR A3002 RMK AO2 SLPNO $





000
SAUS41 KLWX 310359 COR
MTRDMH
METAR KDMH 310354Z AUTO 12/03 A3004 RMK AO1 SLP172 T01170028





000
SAUS41 KLWX 310359 COR
MTRDMH
METAR KDMH 310354Z AUTO 12/03 A3004 RMK AO1 SLP172 T01170028





000
SAUS41 KLWX 310356
MTRNAK
METAR KNAK 310354Z AUTO 30003KT 10SM OVC060 11/05 A3003 RMK AO2
SLP172 T01110050





000
SAUS41 KLWX 310356
MTRNAK
METAR KNAK 310354Z AUTO 30003KT 10SM OVC060 11/05 A3003 RMK AO2
SLP172 T01110050





000
SAUS41 KLWX 310309 COR
MTRRSP
METAR KRSP 310254Z AUTO 10SM FEW041 06/01 RMK AO2 SLPNO T00560006 $





000
SAUS41 KLWX 310300
MTRRYT
METAR KRYT 310253Z AUTO 00000KT 10SM CLR A3003 RMK AO2 SLPNO 54000 $





000
SAUS41 KLWX 310259 COR
MTRDMH
METAR KDMH 310254Z AUTO 12/02 A3004 RMK AO1 SLP174 T01170022 58001





000
SAUS41 KLWX 310256
MTRNAK
METAR KNAK 310254Z AUTO 30003KT 10SM OVC060 11/07 A3004 RMK AO2
SLP175 T01110067 58001





000
SAUS41 KLWX 310209 COR
MTRRSP
METAR KRSP 310154Z AUTO 10SM BKN039 06/01 RMK AO2 SLPNO T00610011 $





000
SAUS41 KLWX 310200
MTRRYT
METAR KRYT 310153Z AUTO 00000KT 10SM OVC047 A3003 RMK AO2 SLPNO $





000
SAUS41 KLWX 310159 COR
MTRDMH
METAR KDMH 310154Z AUTO 12/03 A3005 RMK AO1 SLP176 T01220028





000
SAUS41 KLWX 310155
MTRNAK
METAR KNAK 310154Z AUTO 31003KT 10SM OVC060 10/07 A3005 RMK AO2
SLP176 T01000067





000
SAUS41 KLWX 310109 COR
MTRRSP
METAR KRSP 310054Z AUTO 10SM OVC037 07/02 RMK AO2 SLPNO T00670017 $





000
SAUS41 KLWX 310100
MTRRYT
METAR KRYT 310053Z AUTO 00000KT 10SM OVC047 A3003 RMK AO2 SLPNO $





000
SAUS41 KLWX 310059 COR
MTRDMH
METAR KDMH 310054Z AUTO 12/03 A3005 RMK AO1 SLP174 T01220028





000
SAUS41 KLWX 310055
MTRNAK
METAR KNAK 310054Z AUTO 00000KT 10SM CLR 09/04 A3004 RMK AO2 SLP175
T00890039





000
SAUS41 KLWX 310009 COR
MTRRSP
METAR KRSP 302354Z AUTO 10SM OVC037 06/01 RMK AO2 SLPNO T00610011
10094 20056 $





000
SAUS41 KLWX 310000
MTRRYT
METAR KRYT 302353Z AUTO 00000KT 10SM BKN049 A3003 RMK AO2 SLPNO
52003 $





000
SAUS41 KLWX 302359 COR
MTRDMH
METAR KDMH 302354Z AUTO 12/02 A3005 RMK AO1 SLP175 T01220022 10156
20122 51009





000
SAUS41 KLWX 302356
MTRNAK
METAR KNAK 302354Z AUTO 31003KT 10SM FEW065 11/06 A3004 RMK AO2
SLP176 T01110056 10150 20111 51012





000
SAUS41 KLWX 302309 COR
MTRRSP
METAR KRSP 302254Z AUTO 10SM FEW041 06/01 RMK AO2 SLPNO T00610011 $





000
SAUS41 KLWX 302300
MTRRYT
METAR KRYT 302253Z AUTO 00000KT 10SM OVC049 A3003 RMK AO2 SLPNO $





000
SAUS41 KLWX 302259 COR
MTRDMH
METAR KDMH 302254Z AUTO 13/02 A3004 RMK AO1 SLP173 T01280017





000
SAUS41 KLWX 302255
MTRNAK
METAR KNAK 302254Z AUTO 30003KT 10SM OVC065 12/04 A3004 RMK AO2
SLP173 T01170044





000
SAUS41 KLWX 302209 COR
MTRRSP
METAR KRSP 302154Z AUTO 10SM OVC041 08/02 RMK AO2 SLPNO T00780017 $





000
SAUS41 KLWX 302209 COR
MTRRSP
METAR KRSP 302154Z AUTO 10SM OVC041 08/02 RMK AO2 SLPNO T00780017 $





000
SAUS41 KLWX 302200
MTRRYT
METAR KRYT 302153Z AUTO 00000KT 10SM BKN049 A3002 RMK AO2 SLPNO $





000
SAUS41 KLWX 302200
MTRRYT
METAR KRYT 302153Z AUTO 00000KT 10SM BKN049 A3002 RMK AO2 SLPNO $





000
SAUS41 KLWX 302159 COR
MTRDMH
METAR KDMH 302154Z AUTO 13/02 A3003 RMK AO1 SLP170 T01280022





000
SAUS41 KLWX 302159 COR
MTRDMH
METAR KDMH 302154Z AUTO 13/02 A3003 RMK AO1 SLP170 T01280022





000
SAUS41 KLWX 302155
MTRNAK
METAR KNAK 302154Z AUTO 33008KT 10SM BKN065 13/04 A3002 RMK AO2
SLP168 T01330044





000
SAUS41 KLWX 302155
MTRNAK
METAR KNAK 302154Z AUTO 33008KT 10SM BKN065 13/04 A3002 RMK AO2
SLP168 T01330044





000
SAUS41 KLWX 302109 COR
MTRRSP
METAR KRSP 302054Z AUTO 10SM OVC039 08/01 RMK AO2 SLPNO T00830011 $





000
SAUS41 KLWX 302100
MTRRYT
METAR KRYT 302053Z AUTO 28003KT 10SM OVC047 A3002 RMK AO2 SLPNO $





000
SAUS41 KLWX 302059 COR
MTRDMH
METAR KDMH 302054Z AUTO 14/02 A3002 RMK AO1 SLP165 T01390022 58002





000
SAUS41 KLWX 302056
MTRNAK
METAR KNAK 302054Z AUTO 35008KT 10SM BKN065 14/04 A3001 RMK AO2
SLP164 T01390039 55004





000
SAUS41 KLWX 302011 COR
MTRRSP
METAR KRSP 301954Z AUTO 10SM OVC043 09/01 RMK AO2 SLPNO T00890011 $





000
SAUS41 KLWX 302000
MTRRYT
METAR KRYT 301953Z AUTO 25003KT 10SM OVC050 A3002 RMK AO2 SLPNO $





000
SAUS41 KLWX 301959 COR
MTRDMH
METAR KDMH 301954Z AUTO 14/02 A3002 RMK AO1 SLP167 T01390022





000
SAUS41 KLWX 301955
MTRNAK
METAR KNAK 301954Z AUTO 33008KT 10SM BKN070 15/04 A3001 RMK AO2
SLP163 T01500039





000
SAUS41 KLWX 301910 COR
MTRRSP
METAR KRSP 301854Z AUTO 10SM OVC043 08/01 RMK AO2 SLPNO T00830011 $





000
SAUS41 KLWX 301900
MTRRYT
METAR KRYT 301853Z AUTO 29007KT 10SM OVC055 A3002 RMK AO2 SLPNO $





000
SAUS41 KLWX 301859 COR
MTRDMH
METAR KDMH 301854Z AUTO 14/02 A3002 RMK AO1 SLP166 T01390022





000
SAUS41 KLWX 301855
MTRNAK
METAR KNAK 301854Z AUTO 33007KT 10SM SCT065 15/03 A3001 RMK AO2
SLP164 T01500033





000
SAUS41 KLWX 301809 COR
MTRRSP
METAR KRSP 301754Z AUTO 10SM BKN048 09/01 RMK AO2 SLPNO T00940011
10106 20039 $





000
SAUS41 KLWX 301800
MTRRYT
METAR KRYT 301753Z AUTO VRB05KT 10SM SCT044 OVC055 A3002 RMK AO2
SLPNO 58010 $





000
SAUS41 KLWX 301759 COR
MTRDMH
METAR KDMH 301754Z AUTO 14/03 A3003 RMK AO1 SLP167 T01390028 10144
20100 58012





000
SAUS41 KLWX 301755
MTRNAK
METAR KNAK 301754Z AUTO 35011KT 10SM BKN050 15/04 A3002 RMK AO2
SLP168 T01500039 10150 20094 58013





000
SAUS41 KLWX 301732 COR
MTRRSP
SPECI KRSP 301717Z AUTO 10SM SCT025 OVC048 10/02 RMK AO2 $





000
SAUS41 KLWX 301732 COR
MTRRSP
SPECI KRSP 301717Z AUTO 10SM SCT025 OVC048 10/02 RMK AO2 $





000
SAUS41 KLWX 301709 COR
MTRRSP
METAR KRSP 301654Z AUTO 10SM BKN025 OVC050 09/02 RMK AO2 SLPNO
T00940022 $





000
SAUS41 KLWX 301700
MTRRYT
METAR KRYT 301653Z AUTO 36005KT 10SM SCT048 OVC060 A3004 RMK AO2
SLPNO $





000
SAUS41 KLWX 301700
MTRRYT
METAR KRYT 301653Z AUTO 36005KT 10SM SCT048 OVC060 A3004 RMK AO2
SLPNO $





000
SAUS41 KLWX 301659 COR
MTRDMH
METAR KDMH 301654Z AUTO 14/03 A3004 RMK AO1 SLP172 T01390028





000
SAUS41 KLWX 301659 COR
MTRDMH
METAR KDMH 301654Z AUTO 14/03 A3004 RMK AO1 SLP172 T01390028





000
SAUS41 KLWX 301656
MTRNAK
METAR KNAK 301654Z AUTO 31007KT 10SM CLR 14/04 A3004 RMK AO2 SLP173
T01390039





000
SAUS41 KLWX 301656
MTRNAK
METAR KNAK 301654Z AUTO 31007KT 10SM CLR 14/04 A3004 RMK AO2 SLP173
T01390039





000
SAUS41 KLWX 301642 COR
MTRRSP
SPECI KRSP 301627Z AUTO 10SM BKN023 BKN029 OVC050 09/02 RMK AO2 $





000
SAUS41 KLWX 301642 COR
MTRRSP
SPECI KRSP 301627Z AUTO 10SM BKN023 BKN029 OVC050 09/02 RMK AO2 $





000
SAUS41 KLWX 301609 COR
MTRRSP
METAR KRSP 301554Z AUTO 10SM SCT023 OVC050 10/03 RMK AO2 SLPNO
T01000033 $





000
SAUS41 KLWX 301600
MTRRYT
METAR KRYT 301553Z AUTO VRB03KT 10SM SCT037 OVC060 A3005 RMK AO2
SLPNO $





000
SAUS41 KLWX 301559 COR
MTRDMH
METAR KDMH 301554Z AUTO 13/03 A3005 RMK AO1 SLP176 T01330033





000
SAUS41 KLWX 301556
MTRNAK
METAR KNAK 301554Z AUTO 32009KT 10SM CLR 13/03 A3005 RMK AO2 SLP179
T01330033





000
SAUS41 KLWX 301537 COR
MTRRSP
SPECI KRSP 301522Z AUTO 10SM BKN021 BKN055 09/02 RMK AO2 $





000
SAUS41 KLWX 301510 COR
MTRRSP
METAR KRSP 301454Z AUTO 10SM FEW019 08/03 RMK AO2 SLPNO T00830028 $





000
SAUS41 KLWX 301500
MTRRYT
METAR KRYT 301453Z AUTO 00000KT 10SM FEW032 A3005 RMK AO2 SLPNO
51006 $





000
SAUS41 KLWX 301459 COR
MTRDMH
METAR KDMH 301454Z AUTO 12/03 A3006 RMK AO1 SLP179 T01220028 50010





000
SAUS41 KLWX 301455
MTRNAK
METAR KNAK 301454Z AUTO 32011KT 10SM CLR 13/05 A3006 RMK AO2 SLP181
T01280050 50009





000
SAUS41 KLWX 301409 COR
MTRRSP
METAR KRSP 301354Z AUTO 10SM CLR 07/02 RMK AO2 SLPNO T00720017 $





000
SAUS41 KLWX 301400
MTRRYT
METAR KRYT 301353Z AUTO VRB03KT 10SM CLR A3005 RMK AO2 SLPNO $





000
SAUS41 KLWX 301359 COR
MTRDMH
METAR KDMH 301354Z AUTO 12/03 A3006 RMK AO1 SLP180 T01170033





000
SAUS41 KLWX 301355
MTRNAK
METAR KNAK 301354Z AUTO 32007KT 10SM BKN070 11/06 A3006 RMK AO2
SLP181 T01110056





000
SAUS41 KLWX 301309 COR
MTRRSP
METAR KRSP 301254Z AUTO 10SM CLR 06/01 RMK AO2 SLPNO T00560011 $





000
SAUS41 KLWX 301300 COR
MTRDMH
METAR KDMH 301254Z AUTO 11/04 A3005 RMK AO1 SLP176 T01060039





000
SAUS41 KLWX 301300
MTRRYT
METAR KRYT 301253Z AUTO 00000KT 10SM CLR A3004 RMK AO2 SLPNO $





000
SAUS41 KLWX 301255
MTRNAK
METAR KNAK 301254Z AUTO 31008KT 10SM OVC070 11/05 A3005 RMK AO2
SLP177 T01110050





000
SAUS41 KLWX 301209 COR
MTRRSP
METAR KRSP 301154Z AUTO 10SM CLR 04/01 RMK AO2 SLPNO 70008 T00390006
10072 20039 $





000
SAUS41 KLWX 301200
MTRRYT
METAR KRYT 301153Z AUTO 00000KT 10SM CLR A3003 RMK AO2 SLPNO 70007
51013 $





000
SAUS41 KLWX 301159 COR
MTRDMH
METAR KDMH 301154Z AUTO 10/04 A3003 RMK AO1 SLP169 70005 T01000039
10111 20100 52012





000
SAUS41 KLWX 301156
MTRNAK
METAR KNAK 301154Z AUTO 28004KT 10SM BKN075 09/06 A3003 RMK AO2
SLP171 T00940056 10106 20078 53013





000
SAUS41 KLWX 301109 COR
MTRRSP
METAR KRSP 301054Z AUTO 10SM CLR 05/01 RMK AO2 SLPNO T00500006 $





000
SAUS41 KLWX 301100
MTRRYT
METAR KRYT 301053Z AUTO 00000KT 10SM CLR A3002 RMK AO2 SLPNO $





000
SAUS41 KLWX 301100
MTRRYT
METAR KRYT 301053Z AUTO 00000KT 10SM CLR A3002 RMK AO2 SLPNO $





000
SAUS41 KLWX 301059 COR
MTRDMH
METAR KDMH 301054Z AUTO 10/05 A3002 RMK AO1 SLP166 T01000050





000
SAUS41 KLWX 301059 COR
MTRDMH
METAR KDMH 301054Z AUTO 10/05 A3002 RMK AO1 SLP166 T01000050





000
SAUS41 KLWX 301055
MTRNAK
METAR KNAK 301054Z AUTO 31006KT 10SM CLR 10/07 A3002 RMK AO2 SLP167
T01000067





000
SAUS41 KLWX 301055
MTRNAK
METAR KNAK 301054Z AUTO 31006KT 10SM CLR 10/07 A3002 RMK AO2 SLP167
T01000067





000
SAUS41 KLWX 301009 COR
MTRRSP
METAR KRSP 300954Z AUTO 10SM BKN055 06/01 RMK AO2 SLPNO T00560011 $





000
SAUS41 KLWX 301000
MTRRYT
METAR KRYT 300953Z AUTO 00000KT 10SM SCT070 A3001 RMK AO2 SLPNO $





000
SAUS41 KLWX 300959 COR
MTRDMH
METAR KDMH 300954Z AUTO 10/06 A3001 RMK AO1 SLP161 T01000061





000
SAUS41 KLWX 300955
MTRNAK
METAR KNAK 300954Z AUTO 28004KT 10SM CLR 08/06 A3000 RMK AO2 SLP161
T00830061





000
SAUS41 KLWX 300909 COR
MTRRSP
METAR KRSP 300854Z AUTO 10SM BKN060 06/02 RMK AO2 SLPNO T00560017 $





000
SAUS41 KLWX 300900
MTRRYT
METAR KRYT 300853Z AUTO 23003KT 10SM BKN070 A2999 RMK AO2 SLPNO
53003 $





000
SAUS41 KLWX 300859 COR
MTRDMH
METAR KDMH 300854Z AUTO 11/07 A3000 RMK AO1 SLP158 T01060067 53002





000
SAUS41 KLWX 300855
MTRNAK
METAR KNAK 300854Z AUTO 30003KT 9SM CLR 09/07 A2999 RMK AO2 SLP158
T00890072 53002





000
SAUS41 KLWX 300809 COR
MTRRSP
METAR KRSP 300754Z AUTO 10SM FEW060 06/02 RMK AO2 SLPNO T00560022 $





000
SAUS41 KLWX 300800
MTRRYT
METAR KRYT 300753Z AUTO 00000KT 10SM CLR A2998 RMK AO2 SLPNO $





000
SAUS41 KLWX 300759 COR
MTRDMH
METAR KDMH 300754Z AUTO 10/08 A2999 RMK AO1 SLP155 T01000078





000
SAUS41 KLWX 300755
MTRNAK
METAR KNAK 300754Z AUTO 26003KT 6SM BR CLR 09/08 A2998 RMK AO2
SLP155 T00890078





000
SAUS41 KLWX 300709 COR
MTRRSP
METAR KRSP 300654Z AUTO 10SM CLR 06/03 RMK AO2 SLPNO T00610028 $





000
SAUS41 KLWX 300700
MTRRYT
METAR KRYT 300653Z AUTO 00000KT 10SM CLR A2998 RMK AO2 SLPNO $





000
SAUS41 KLWX 300659 COR
MTRDMH
METAR KDMH 300654Z AUTO 11/08 A2998 RMK AO1 SLP153 T01060083





000
SAUS41 KLWX 300655
MTRNAK
METAR KNAK 300654Z AUTO 00000KT 6SM BR CLR 09/08 A2998 RMK AO2
SLP154 T00940083





000
SAUS41 KLWX 300609 COR
MTRRSP
METAR KRSP 300554Z AUTO 10SM CLR 07/03 RMK AO2 SLPNO T00670028 10100
20067 $





000
SAUS41 KLWX 300600
MTRRYT
METAR KRYT 300553Z AUTO 00000KT 10SM CLR A2998 RMK AO2 SLPNO 55000 $





000
SAUS41 KLWX 300559 COR
MTRDMH
METAR KDMH 300554Z AUTO 11/09 A2999 RMK AO1 SLP156 T01060089 10128
20106 56001





000
SAUS41 KLWX 300555
MTRNAK
METAR KNAK 300554Z AUTO 00000KT 6SM BR CLR 09/08 A2999 RMK AO2
SLP156 T00890078 10133 20089 50000





000
SAUS41 KLWX 300509 COR
MTRRSP
METAR KRSP 300454Z AUTO 10SM CLR 07/03 RMK AO2 SLPNO T00720033
401940072 $





000
SAUS41 KLWX 300500
MTRRYT
METAR KRYT 300453Z AUTO 00000KT 8SM CLR A2998 RMK AO2 SLPNO $





000
SAUS41 KLWX 300500
MTRRYT
METAR KRYT 300453Z AUTO 00000KT 8SM CLR A2998 RMK AO2 SLPNO $





000
SAUS41 KLWX 300459 COR
MTRDMH
METAR KDMH 300454Z AUTO 11/09 A2999 RMK AO1 SLP156 T01110094
402000111





000
SAUS41 KLWX 300459 COR
MTRDMH
METAR KDMH 300454Z AUTO 11/09 A2999 RMK AO1 SLP156 T01110094
402000111





000
SAUS41 KLWX 300455
MTRNAK
METAR KNAK 300454Z AUTO 00000KT 8SM CLR 09/08 A2999 RMK AO2 SLP158
T00940083 402110094





000
SAUS41 KLWX 300455
MTRNAK
METAR KNAK 300454Z AUTO 00000KT 8SM CLR 09/08 A2999 RMK AO2 SLP158
T00940083 402110094





000
SAUS41 KLWX 300409 COR
MTRRSP
METAR KRSP 300354Z AUTO 10SM CLR 07/04 RMK AO2 SLPNO T00720039 $





000
SAUS41 KLWX 300400
MTRRYT
METAR KRYT 300353Z AUTO 23003KT 7SM CLR A2997 RMK AO2 SLPNO $





000
SAUS41 KLWX 300359 COR
MTRDMH
METAR KDMH 300354Z AUTO 11/10 A2999 RMK AO1 SLP155 T01110100





000
SAUS41 KLWX 300355
MTRNAK
METAR KNAK 300354Z AUTO 00000KT 7SM CLR 10/09 A2999 RMK AO2 SLP157
T01000089





000
SAUS41 KLWX 300309 COR
MTRRSP
METAR KRSP 300254Z AUTO 10SM CLR 08/04 RMK AO2 SLPNO T00780044 $





000
SAUS41 KLWX 300300
MTRRYT
METAR KRYT 300253Z AUTO 00000KT 9SM CLR A2998 RMK AO2 SLPNO 52003 $





000
SAUS41 KLWX 300259 COR
MTRDMH
METAR KDMH 300254Z AUTO 12/11 A3000 RMK AO1 SLP157 T01170106 52003





000
SAUS41 KLWX 300255
MTRNAK
METAR KNAK 300254Z AUTO 31003KT 8SM FEW100 12/10 A2999 RMK AO2
SLP156 T01170100 53000





000
SAUS41 KLWX 300209 COR
MTRRSP
METAR KRSP 300154Z AUTO 10SM CLR 08/06 RMK AO2 SLPNO T00830056 $





000
SAUS41 KLWX 300200
MTRRYT
METAR KRYT 300153Z AUTO 00000KT 6SM HZ CLR A2998 RMK AO2 SLPNO $





000
SAUS41 KLWX 300159 COR
MTRDMH
METAR KDMH 300154Z AUTO 12/11 A2999 RMK AO1 SLP156 T01220106





000
SAUS41 KLWX 300156
MTRNAK
METAR KNAK 300154Z AUTO 00000KT 10SM CLR 12/10 A2999 RMK AO2 SLP157
T01220100





000
SAUS41 KLWX 300109 COR
MTRRSP
METAR KRSP 300054Z AUTO 10SM CLR 08/07 RMK AO2 SLPNO T00830067 $





000
SAUS41 KLWX 300100
MTRRYT
METAR KRYT 300053Z AUTO 00000KT 9SM CLR A2997 RMK AO2 SLPNO $





000
SAUS41 KLWX 300059 COR
MTRDMH
METAR KDMH 300054Z AUTO 13/11 A2999 RMK AO1 SLP155 T01280111





000
SAUS41 KLWX 300055
MTRNAK
METAR KNAK 300054Z AUTO 00000KT 10SM CLR 12/09 A2998 RMK AO2 SLP154
T01220094





000
SAUS41 KLWX 300009 COR
MTRRSP
METAR KRSP 292354Z AUTO 10SM CLR 09/07 RMK AO2 SLPNO 60002 T00940067
10117 20094 $





000
SAUS41 KLWX 300000
MTRRYT
METAR KRYT 292353Z AUTO 00000KT 10SM CLR A2997 RMK AO2 SLPNO 60002
53017 $





000
SAUS41 KLWX 292359 COR
MTRDMH
METAR KDMH 292354Z AUTO 13/11 A2999 RMK AO1 SLP154 60005 T01280111
10150 20128 53016





000
SAUS41 KLWX 292355
MTRNAK
METAR KNAK 292354Z AUTO 00000KT 10SM SCT075 OVC110 13/10 A2999 RMK
AO2 SLP156 60000 T01330100 10161 20128 53013





000
SAUS41 KLWX 292309 COR
MTRRSP
METAR KRSP 292254Z AUTO 10SM CLR 09/07 RMK AO2 SLPNO T00940067 $





000
SAUS41 KLWX 292300
MTRRYT
METAR KRYT 292253Z AUTO 00000KT 10SM CLR A2995 RMK AO2 SLPNO $





000
SAUS41 KLWX 292259 COR
MTRDMH
METAR KDMH 292254Z AUTO 13/11 A2997 RMK AO1 SLP149 T01330111





000
SAUS41 KLWX 292255
MTRNAK
METAR KNAK 292254Z AUTO 00000KT 10SM OVC060 13/09 A2997 RMK AO2
SLP150 T01330094





000
SAUS41 KLWX 292209 COR
MTRRSP
METAR KRSP 292154Z AUTO 10SM CLR 10/07 RMK AO2 SLPNO T01000072 $





000
SAUS41 KLWX 292200
MTRRYT
METAR KRYT 292153Z AUTO 00000KT 10SM CLR A2992 RMK AO2 SLPNO $





000
SAUS41 KLWX 292159 COR
MTRDMH
METAR KDMH 292154Z AUTO 14/11 A2995 RMK AO1 SLP142 T01390106





000
SAUS41 KLWX 292155
MTRNAK
METAR KNAK 292154Z AUTO 00000KT 10SM OVC048 13/09 A2995 RMK AO2
SLP145 T01280094





000
SAUS41 KLWX 292109 COR
MTRRSP
METAR KRSP 292054Z AUTO 10SM SCT080 12/08 RMK AO2 SLPNO 60002
T01170078 $





000
SAUS41 KLWX 292100
MTRRYT
METAR KRYT 292053Z AUTO VRB03KT 10SM BKN090 A2992 RMK AO2 SLPNO
60002 55000 $





000
SAUS41 KLWX 292059 COR
MTRDMH
METAR KDMH 292054Z AUTO 14/10 A2994 RMK AO1 SLP139 60005 T01390100
58004





000
SAUS41 KLWX 292056
MTRNAK
METAR KNAK 292054Z AUTO 33003KT 10SM OVC045 13/09 A2995 RMK AO2
RAE16 SLP143 P0000 60000 T01330094 51002





000
SAUS41 KLWX 292009 COR
MTRRSP
METAR KRSP 291954Z AUTO 10SM FEW090 11/08 RMK AO2 SLPNO T01110083 $





000
SAUS41 KLWX 292000
MTRRYT
METAR KRYT 291953Z AUTO 25004KT 10SM FEW017 A2991 RMK AO2 SLPNO $





000
SAUS41 KLWX 291959 COR
MTRDMH
METAR KDMH 291954Z AUTO 13/11 A2995 RMK AO1 SLP141 P0001 T01330106





000
SAUS41 KLWX 291955
MTRNAK
METAR KNAK 291954Z AUTO 34007KT 9SM -RA BKN045 OVC085 13/09 A2995
RMK AO2 RAB09E20B42 SLP142 P0000 T01330094





000
SAUS41 KLWX 291909 COR
MTRRSP
METAR KRSP 291854Z AUTO 8SM FEW005 BKN065 OVC090 10/08 RMK AO2 RAE20
SLPNO P0002 T01000083 $





000
SAUS41 KLWX 291859 COR
MTRDMH
METAR KDMH 291854Z AUTO 13/09 A2995 RMK AO1 SLP143 P0004 T01280094





000
SAUS41 KLWX 291859
MTRRYT
METAR KRYT 291853Z AUTO VRB03KT 10SM SCT013 BKN060 OVC100 A2992 RMK
AO2 UPE26RAB07E22 SLPNO P0002 $





000
SAUS41 KLWX 291855
MTRNAK
METAR KNAK 291854Z AUTO 33012KT 10SM OVC048 15/08 A2996 RMK AO2
SLP146 T01500078





000
SAUS41 KLWX 291810 COR
MTRRSP
METAR KRSP 291754Z AUTO 3SM -RA BR SCT005 BKN040 OVC075 10/09 RMK
AO2 SLPNO P0003 60006 T01000089 10122 20094 $





000
SAUS41 KLWX 291800
MTRRYT
METAR KRYT 291753Z AUTO VRB03KT 7SM UP FEW075 OVC090 A2994 RMK AO2
UPB08RAB19E29 SLPNO P0002 60005 57010 $





000
SAUS41 KLWX 291759 COR
MTRDMH
METAR KDMH 291754Z AUTO 15/07 A2995 RMK AO1 SLP142 T01500072 10200
20150 50003





000
SAUS41 KLWX 291756
MTRNAK
METAR KNAK 291754Z AUTO 32014KT 10SM SCT047 BKN070 17/07 A2994 RMK
AO2 SLP141 T01670072 10200 20156 53003





000
SAUS41 KLWX 291738 COR
MTRRSP
SPECI KRSP 291723Z AUTO 4SM -RA BR FEW005 BKN070 OVC080 10/09 RMK
AO2 P0002 $





000
SAUS41 KLWX 291707
MTRRSP
METAR KRSP 291654Z AUTO 10SM -RA FEW038 OVC075 10/08 RMK AO2
RAE34B53 SLPNO P0001 T01000083 $





000
SAUS41 KLWX 291700
MTRRYT
METAR KRYT 291653Z AUTO 28003KT 10SM FEW060 OVC085 A2994 RMK AO2
UPE1555 SLPNO P0001 $





000
SAUS41 KLWX 291659 COR
MTRDMH
METAR KDMH 291654Z AUTO 17/05 A2997 RMK AO1 SLP148 T01670050





000
SAUS41 KLWX 291655
MTRNAK
METAR KNAK 291654Z AUTO 32016G21KT 10SM OVC044 18/08 A2993 RMK AO2
SLP137 T01830083





000
SAUS41 KLWX 291609 COR
MTRRSP
METAR KRSP 291554Z AUTO 8SM -RA BKN080 OVC090 10/08 RMK AO2 RAB02
SLPNO P0002 T01000083 $





000
SAUS41 KLWX 291600
MTRRYT
METAR KRYT 291553Z AUTO 00000KT 10SM UP BKN046 BKN080 OVC090 A2997
RMK AO2 UPB1454 SLPNO P0002 $





000
SAUS41 KLWX 291559 COR
MTRDMH
METAR KDMH 291554Z AUTO 19/08 A2995 RMK AO1 SLP143 T01890078





000
SAUS41 KLWX 291555
MTRNAK
METAR KNAK 291554Z AUTO 32009KT 10SM CLR 19/11 A2994 RMK AO2 SLP139
T01940106





000
SAUS41 KLWX 291509 COR
MTRRSP
METAR KRSP 291454Z AUTO 10SM OVC090 09/08 RMK AO2 RAE1356B34E51
SLPNO P0000 60000 T00940078 $





000
SAUS41 KLWX 291500
MTRRYT
METAR KRYT 291453Z AUTO VRB03KT 10SM FEW014 OVC090 A2997 RMK AO2
UPE10 SLPNO P0000 60000 51013 $





000
SAUS41 KLWX 291500 COR
MTRDMH
METAR KDMH 291454Z AUTO 19/10 A2994 RMK AO1 SLP139 T01940100 51009





000
SAUS41 KLWX 291455
MTRNAK
METAR KNAK 291454Z AUTO 31009KT 10SM FEW085 19/11 A2993 RMK AO2
SLP138 T01890106 51007





000
SAUS41 KLWX 291409 COR
MTRRSP
METAR KRSP 291354Z AUTO 10SM -RA BKN075 OVC090 10/08 RMK AO2 RAB39
SLPNO P0000 T01000078 $





000
SAUS41 KLWX 291400
MTRRYT
METAR KRYT 291353Z AUTO VRB05KT 10SM UP OVC090 A2997 RMK AO2 UPB48
SLPNO P0000 $





000
SAUS41 KLWX 291359 COR
MTRDMH
METAR KDMH 291354Z AUTO 19/09 A2994 RMK AO1 SLP138 T01890094





000
SAUS41 KLWX 291355
MTRNAK
METAR KNAK 291354Z AUTO 32005KT 7SM CLR 18/14 A2993 RMK AO2 SLP138
T01830144





000
SAUS41 KLWX 291309 COR
MTRRSP
METAR KRSP 291254Z AUTO 10SM BKN100 11/07 RMK AO2 SLPNO T01110067 $





000
SAUS41 KLWX 291300
MTRRYT
METAR KRYT 291253Z AUTO VRB04KT 10SM OVC100 A2995 RMK AO2 SLPNO $





000
SAUS41 KLWX 291259 COR
MTRDMH
METAR KDMH 291254Z AUTO 18/13 A2993 RMK AO1 SLP134 T01830128





000
SAUS41 KLWX 291256
MTRNAK
METAR KNAK 291254Z AUTO 00000KT 7SM CLR 17/15 A2992 RMK AO2 SLP135
T01720150





000
SAUS41 KLWX 291209 COR
MTRRSP
METAR KRSP 291154Z AUTO 10SM BKN095 12/08 RMK AO2 SLPNO T01220083
10189 20122 $





000
SAUS41 KLWX 291200
MTRRYT
METAR KRYT 291153Z AUTO VRB05KT 10SM OVC100 A2993 RMK AO2 SLPNO
53006 $





000
SAUS41 KLWX 291159 COR
MTRDMH
METAR KDMH 291154Z AUTO 17/14 A2991 RMK AO1 SLP129 T01670144 10194
20167 53001





000
SAUS41 KLWX 291155
MTRNAK
METAR KNAK 291154Z AUTO 10003KT 6SM BR CLR 16/14 A2991 RMK AO2
SLP131 T01610144 10206 20156 51005





000
SAUS41 KLWX 291109 COR
MTRRSP
METAR KRSP 291054Z AUTO 10SM SCT100 13/08 RMK AO2 SLPNO T01330078 $





000
SAUS41 KLWX 291100
MTRRYT
METAR KRYT 291053Z AUTO VRB03KT 10SM FEW090 SCT110 A2991 RMK AO2
SLPNO $





000
SAUS41 KLWX 291059 COR
MTRDMH
METAR KDMH 291054Z AUTO 17/14 A2991 RMK AO1 SLP127 T01720144





000
SAUS41 KLWX 291055
MTRNAK
METAR KNAK 291054Z AUTO 13003KT 7SM CLR 16/14 A2991 RMK AO2 SLP131
T01610144





000
SAUS41 KLWX 291009 COR
MTRRSP
METAR KRSP 290954Z AUTO 10SM SCT080 BKN120 14/08 RMK AO2 SLPNO
T01390078 $





000
SAUS41 KLWX 291000
MTRRYT
METAR KRYT 290953Z AUTO VRB04KT 10SM SCT085 BKN110 A2991 RMK AO2
SLPNO $





000
SAUS41 KLWX 290959 COR
MTRDMH
METAR KDMH 290954Z AUTO 17/14 A2991 RMK AO1 SLP128 T01720144





000
SAUS41 KLWX 290955
MTRNAK
METAR KNAK 290954Z AUTO 00000KT 7SM CLR 16/14 A2991 RMK AO2 SLP131
T01610144





000
SAUS41 KLWX 290942
MTRRYT
SPECI KRYT 290935Z AUTO VRB03KT 10SM SCT028 BKN080 OVC110 A2992 RMK
AO2 $





000
SAUS41 KLWX 290933
MTRRYT
SPECI KRYT 290926Z AUTO VRB05KT 10SM BKN028 OVC110 A2992 RMK AO2 $





000
SAUS41 KLWX 290909 COR
MTRRSP
METAR KRSP 290854Z AUTO 10SM BKN100 16/11 RMK AO2 SLPNO T01610106 $





000
SAUS41 KLWX 290900
MTRRYT
METAR KRYT 290853Z AUTO VRB05KT 10SM OVC110 A2991 RMK AO2 SLPNO
51010 $





000
SAUS41 KLWX 290859 COR
MTRDMH
METAR KDMH 290854Z AUTO 18/14 A2991 RMK AO1 SLP128 T01830144 53004





000
SAUS41 KLWX 290856
MTRNAK
METAR KNAK 290854Z AUTO 14004KT 7SM CLR 17/15 A2990 RMK AO2 SLP126
T01670150 55001





000
SAUS41 KLWX 290809 COR
MTRRSP
METAR KRSP 290754Z AUTO 10SM BKN100 17/11 RMK AO2 SLPNO T01720106 $





000
SAUS41 KLWX 290800
MTRRYT
METAR KRYT 290753Z AUTO VRB04KT 10SM OVC100 A2990 RMK AO2 SLPNO $





000
SAUS41 KLWX 290759 COR
MTRDMH
METAR KDMH 290754Z AUTO 19/14 A2989 RMK AO1 SLP122 T01890144





000
SAUS41 KLWX 290756
MTRNAK
METAR KNAK 290754Z AUTO 15004KT 10SM CLR 18/14 A2990 RMK AO2 SLP125
T01830144





000
SAUS41 KLWX 290709 COR
MTRRSP
METAR KRSP 290654Z AUTO 10SM BKN100 18/09 RMK AO2 SLPNO T01780094 $





000
SAUS41 KLWX 290700
MTRRYT
METAR KRYT 290653Z AUTO VRB04KT 10SM OVC095 A2990 RMK AO2 SLPNO $





000
SAUS41 KLWX 290659 COR
MTRDMH
METAR KDMH 290654Z AUTO 18/14 A2990 RMK AO1 SLP125 T01830144





000
SAUS41 KLWX 290655
MTRNAK
METAR KNAK 290654Z AUTO 18004KT 10SM CLR 20/14 A2990 RMK AO2 SLP128
T02000139





000
SAUS41 KLWX 290609 COR
MTRRSP
METAR KRSP 290554Z AUTO 10SM BKN090 18/09 RMK AO2 SLPNO T01830089
10211 20183 $





000
SAUS41 KLWX 290600
MTRRYT
METAR KRYT 290553Z AUTO 23007KT 10SM OVC100 A2988 RMK AO2 SLPNO
57006 $





000
SAUS41 KLWX 290559 COR
MTRDMH
METAR KDMH 290554Z AUTO 19/14 A2990 RMK AO1 SLP124 T01890139 10200
20178 58007





000
SAUS41 KLWX 290556
MTRNAK
METAR KNAK 290554Z AUTO VRB05KT 10SM CLR 21/14 A2990 RMK AO2 SLP127
T02060139 10211 20161 58009





000
SAUS41 KLWX 290509 COR
MTRRSP
METAR KRSP 290454Z AUTO 10SM CLR 19/09 RMK AO2 SLPNO T01890094
402500161 $





000
SAUS41 KLWX 290500
MTRRYT
METAR KRYT 290453Z AUTO 22008KT 10SM CLR A2989 RMK AO2 SLPNO $





000
SAUS41 KLWX 290459 COR
MTRDMH
METAR KDMH 290454Z AUTO 18/13 A2990 RMK AO1 SLP126 T01830133
402280117





000
SAUS41 KLWX 290455
MTRNAK
METAR KNAK 290454Z AUTO 19005KT 10SM CLR 21/14 A2991 RMK AO2 SLP131
T02110139 402280122





000
SAUS41 KLWX 290409 COR
MTRRSP
METAR KRSP 290354Z AUTO 10SM CLR 19/09 RMK AO2 SLPNO T01940094 $





000
SAUS41 KLWX 290409 COR
MTRRSP
METAR KRSP 290354Z AUTO 10SM CLR 19/09 RMK AO2 SLPNO T01940094 $





000
SAUS41 KLWX 290400 COR
MTRDMH
METAR KDMH 290354Z AUTO 18/13 A2992 RMK AO1 SLP131 T01830133





000
SAUS41 KLWX 290400
MTRRYT
METAR KRYT 290353Z AUTO 21008KT 10SM CLR A2989 RMK AO2 SLPNO $





000
SAUS41 KLWX 290356
MTRNAK
METAR KNAK 290354Z AUTO 15005KT 10SM CLR 18/15 A2993 RMK AO2 SLP135
T01830150





000
SAUS41 KLWX 290309 COR
MTRRSP
METAR KRSP 290254Z AUTO 10SM CLR 19/11 RMK AO2 SLPNO T01890106 $





000
SAUS41 KLWX 290300
MTRRYT
METAR KRYT 290253Z AUTO 22005KT 10SM FEW100 A2990 RMK AO2 SLPNO
55000 $





000
SAUS41 KLWX 290259 COR
MTRDMH
METAR KDMH 290254Z AUTO 18/13 A2992 RMK AO1 SLP131 T01830128 56004





000
SAUS41 KLWX 290256
MTRNAK
METAR KNAK 290254Z AUTO 12004KT 10SM CLR 18/15 A2993 RMK AO2 SLP136
T01830150 56005





000
SAUS41 KLWX 290208 COR
MTRRSP
METAR KRSP 290154Z AUTO 10SM CLR 20/10 RMK AO2 SLPNO T02000100 $





000
SAUS41 KLWX 290200
MTRRYT
METAR KRYT 290153Z AUTO 22011G16KT 10SM CLR A2990 RMK AO2 SLPNO $





000
SAUS41 KLWX 290159 COR
MTRDMH
METAR KDMH 290154Z AUTO 18/13 A2992 RMK AO1 SLP133 T01830133





000
SAUS41 KLWX 290156
MTRNAK
METAR KNAK 290154Z AUTO 15005KT 10SM CLR 18/15 A2993 RMK AO2 SLP138
T01780150





000
SAUS41 KLWX 290109 COR
MTRRSP
METAR KRSP 290054Z AUTO 10SM CLR 21/10 RMK AO2 SLPNO T02060100 $





000
SAUS41 KLWX 290100
MTRRYT
METAR KRYT 290053Z AUTO 23007KT 10SM CLR A2989 RMK AO2 SLPNO $





000
SAUS41 KLWX 290059 COR
MTRDMH
METAR KDMH 290054Z AUTO 19/13 A2993 RMK AO1 SLP133 T01890133





000
SAUS41 KLWX 290055
MTRNAK
METAR KNAK 290054Z AUTO 17007KT 10SM CLR 18/15 A2993 RMK AO2 SLP138
T01830150





000
SAUS41 KLWX 290009 COR
MTRRSP
METAR KRSP 282354Z AUTO 10SM CLR 21/09 RMK AO2 SLPNO T02110094 10250
20211 $





000
SAUS41 KLWX 290000
MTRRYT
METAR KRYT 282353Z AUTO 00000KT 10SM CLR A2990 RMK AO2 SLPNO 58003 $





000
SAUS41 KLWX 282359 COR
MTRDMH
METAR KDMH 282354Z AUTO 19/13 A2993 RMK AO1 SLP135 T01940128 10228
20194 56004





000
SAUS41 KLWX 282356
MTRNAK
METAR KNAK 282354Z AUTO 18010KT 10SM CLR 19/15 A2994 RMK AO2 SLP141
T01890150 10228 20183 56001





000
SAUS41 KLWX 282309 COR
MTRRSP
METAR KRSP 282254Z AUTO 10SM CLR 21/10 RMK AO2 SLPNO T02110100 $





000
SAUS41 KLWX 282300
MTRRYT
METAR KRYT 282253Z AUTO 00000KT 10SM CLR A2991 RMK AO2 SLPNO $





000
SAUS41 KLWX 282259 COR
MTRDMH
METAR KDMH 282254Z AUTO 21/13 A2993 RMK AO1 SLP135 T02060128





000
SAUS41 KLWX 282255
MTRNAK
METAR KNAK 282254Z AUTO 18009KT 10SM CLR 20/14 A2995 RMK AO2 SLP142
T02000144





    US Dept of Commerce
    National Oceanic and Atmospheric Administration
    National Weather Service
    1325 East West Highway
    Silver Spring, MD 20910
    Page Author: NWS Internet Services Team
Disclaimer
Information Quality
Credits
Glossary
Privacy Policy
Freedom of Information Act (FOIA)
About Us
Career Opportunities